Time;durP1;ratioP1;P1;durP2;ratioP2;P2;SDS_P1;SDS_P2;PMS_P1;PMS_P2;Temp;Humidity;BMP_temperature;BMP_pressure;BME280_temperature;BME280_humidity;BME280_pressure;Samples;Min_cycle;Max_cycle;Signal;HPM_P1;HPM_P2
2020/12/07 00:01:42;;;;;;;;;;;;;;;;;;4941421;28;20021;-78
2020/12/07 00:04:09;;;;;;;;;;;;;;;;;;4941104;28;20556;-78
2020/12/07 00:06:35;;;;;;;;;;;;;;;;;;4944182;28;19937;-77
2020/12/07 00:09:02;;;;;;;;;;;;;;;;;;4942419;28;19940;-78
2020/12/07 00:11:28;;;;;;;;;;;;;;;;;;4937919;28;19946;-78
2020/12/07 00:13:55;;;;;;;;;;;;;;;;;;4946355;28;19941;-78
2020/12/07 00:16:21;;;;;;;;;;;;;;;;;;4939114;28;20460;-78
2020/12/07 00:18:48;;;;;;;;;;;;;;;;;;4941335;28;20049;-78
2020/12/07 00:21:14;;;;;;;;;;;;;;;;;;4940885;28;19937;-78
2020/12/07 00:23:42;;;;;;;;;;;;;;;;;;4942369;28;20405;-78
2020/12/07 00:26:10;;;;;;;;;;;;;;;;;;4941704;28;19941;-78
2020/12/07 00:28:38;;;;;;;;;;;;;;;;;;4940641;28;20295;-79
2020/12/07 00:31:04;;;;;;;;;;;;;;;;;;4940687;28;19982;-78
2020/12/07 00:33:32;;;;;;;;;;;;;;;;;;4940050;28;20433;-79
2020/12/07 00:35:59;;;;;;;;;;;;;;;;;;4941854;28;20349;-78
2020/12/07 00:38:26;;;;;;;;;;;;;;;;;;4941442;28;20025;-78
2020/12/07 00:40:53;;;;;;;;;;;;;;;;;;4939112;28;20388;-78
2020/12/07 00:43:20;;;;;;;;;;;;;;;;;;4940334;28;19930;-78
2020/12/07 00:45:46;;;;;;;;;;;;;;;;;;4939538;28;20017;-78
2020/12/07 00:48:13;;;;;;;;;;;;;;;;;;4937053;28;19978;-78
2020/12/07 00:50:40;;;;;;;;;;;;;;;;;;4941712;28;19982;-78
2020/12/07 00:53:07;;;;;;;;;;;;;;;;;;4941410;28;19941;-78
2020/12/07 00:55:34;;;;;;;;;;;;;;;;;;4940042;28;20054;-78
2020/12/07 00:58:00;;;;;;;;;;;;;;;;;;4938228;28;19930;-78
2020/12/07 01:00:27;;;;;;;;;;;;;;;;;;4940134;28;20367;-78
2020/12/07 01:02:53;;;;;;;;;;;;;;;;;;4936291;28;19935;-78
2020/12/07 01:05:20;;;;;;;;;;;;;;;;;;4939991;28;20046;-79
2020/12/07 01:07:46;;;;;;;;;;;;;;;;;;4941141;28;19937;-78
2020/12/07 01:10:13;;;;;;;;;;;;;;;;;;4939652;28;20025;-78
2020/12/07 01:12:40;;;;;;;;;;;;;;;;;;4938863;28;20025;-78
2020/12/07 01:15:07;;;;;;;;;;;;;;;;;;4941861;28;20044;-78
2020/12/07 01:17:33;;;;;;;;;;;;;;;;;;4939130;28;19930;-78
2020/12/07 01:20:00;;;;;;;;;;;;;;;;;;4940783;28;20373;-78
2020/12/07 01:22:27;;;;;;;;;;;;;;;;;;4938433;28;19937;-78
2020/12/07 01:24:54;;;;;;;;;;;;;;;;;;4939930;28;20022;-78
2020/12/07 01:27:20;;;;;;;;;;;;;;;;;;4939535;28;20052;-79
2020/12/07 01:29:47;;;;;;;;;;;;;;;;;;4938194;28;19927;-78
2020/12/07 01:32:14;;;;;;;;;;;;;;;;;;4939899;28;19930;-78
2020/12/07 01:34:40;;;;;;;;;;;;;;;;;;4939668;28;19937;-78
2020/12/07 01:37:07;;;;;;;;;;;;;;;;;;4939617;28;19931;-78
2020/12/07 01:39:33;;;;;;;;;;;;;;;;;;4938335;28;19970;-78
2020/12/07 01:42:00;;;;;;;;;;;;;;;;;;4939588;28;20308;-78
2020/12/07 01:44:27;;;;;;;;;;;;;;;;;;4939814;28;19937;-78
2020/12/07 01:46:55;;;;;;;;;;;;;;;;;;4943801;28;19934;-79
2020/12/07 01:49:21;;;;;;;;;;;;;;;;;;4938725;28;19933;-78
2020/12/07 01:51:48;;;;;;;;;;;;;;;;;;4942367;28;20632;-78
2020/12/07 01:54:14;;;;;;;;;;;;;;;;;;4944176;28;19930;-78
2020/12/07 01:56:41;;;;;;;;;;;;;;;;;;4944185;28;19935;-78
2020/12/07 01:59:07;;;;;;;;;;;;;;;;;;4942397;28;19980;-78
2020/12/07 02:01:34;;;;;;;;;;;;;;;;;;4944336;28;19927;-79
2020/12/07 02:04:00;;;;;;;;;;;;;;;;;;4944257;28;19935;-78
2020/12/07 02:06:29;;;;;;;;;;;;;;;;;;4942729;28;19933;-78
2020/12/07 02:08:56;;;;;;;;;;;;;;;;;;4943221;28;19927;-78
2020/12/07 02:11:22;;;;;;;;;;;;;;;;;;4943760;28;19941;-79
2020/12/07 02:13:49;;;;;;;;;;;;;;;;;;4943390;28;19985;-78
2020/12/07 02:16:15;;;;;;;;;;;;;;;;;;4943764;28;19930;-79
2020/12/07 02:18:43;;;;;;;;;;;;;;;;;;4943431;28;20362;-78
2020/12/07 02:21:09;;;;;;;;;;;;;;;;;;4942093;28;20033;-78
2020/12/07 02:23:37;;;;;;;;;;;;;;;;;;4941619;28;20077;-78
2020/12/07 02:26:03;;;;;;;;;;;;;;;;;;4942416;28;19934;-78
2020/12/07 02:28:30;;;;;;;;;;;;;;;;;;4940733;28;19993;-78
2020/12/07 02:30:56;;;;;;;;;;;;;;;;;;4942855;28;20017;-78
2020/12/07 02:33:25;;;;;;;;;;;;;;;;;;4943406;28;20788;-78
2020/12/07 02:35:52;;;;;;;;;;;;;;;;;;4943417;28;20318;-78
2020/12/07 02:38:18;;;;;;;;;;;;;;;;;;4942566;28;19969;-78
2020/12/07 02:40:45;;;;;;;;;;;;;;;;;;4941202;28;20407;-78
2020/12/07 02:43:12;;;;;;;;;;;;;;;;;;4941426;28;21034;-77
2020/12/07 02:45:38;;;;;;;;;;;;;;;;;;4942867;28;19937;-78
2020/12/07 02:48:06;;;;;;;;;;;;;;;;;;4941114;28;19937;-78
2020/12/07 02:50:32;;;;;;;;;;;;;;;;;;4941305;28;20025;-77
2020/12/07 02:52:59;;;;;;;;;;;;;;;;;;4941684;28;19926;-78
2020/12/07 02:55:25;;;;;;;;;;;;;;;;;;4941285;28;19931;-77
2020/12/07 02:57:52;;;;;;;;;;;;;;;;;;4942119;28;19969;-78
2020/12/07 03:00:20;;;;;;;;;;;;;;;;;;4940972;28;20021;-77
2020/12/07 03:02:46;;;;;;;;;;;;;;;;;;4943026;28;19994;-77
2020/12/07 03:05:13;;;;;;;;;;;;;;;;;;4941975;28;19935;-78
2020/12/07 03:07:39;;;;;;;;;;;;;;;;;;4943611;28;20455;-78
2020/12/07 03:10:06;;;;;;;;;;;;;;;;;;4943937;28;20021;-78
2020/12/07 03:12:32;;;;;;;;;;;;;;;;;;4951707;29;19962;-78
2020/12/07 03:14:59;;;;;;;;;;;;;;;;;;4942693;28;20037;-78
2020/12/07 03:17:26;;;;;;;;;;;;;;;;;;4943660;28;19936;-78
2020/12/07 03:19:53;;;;;;;;;;;;;;;;;;4942246;28;19989;-78
2020/12/07 03:22:20;;;;;;;;;;;;;;;;;;4941362;28;20607;-78
2020/12/07 03:24:47;;;;;;;;;;;;;;;;;;4942748;28;19970;-78
2020/12/07 03:27:13;;;;;;;;;;;;;;;;;;4940560;28;20487;-78
2020/12/07 03:29:40;;;;;;;;;;;;;;;;;;4943108;28;19934;-78
2020/12/07 03:32:06;;;;;;;;;;;;;;;;;;4941402;28;20017;-78
2020/12/07 03:34:33;;;;;;;;;;;;;;;;;;4939883;28;19933;-79
2020/12/07 03:36:59;;;;;;;;;;;;;;;;;;4939695;28;20021;-78
2020/12/07 03:39:26;;;;;;;;;;;;;;;;;;4942146;28;20380;-78
2020/12/07 03:41:53;;;;;;;;;;;;;;;;;;4941542;28;20021;-78
2020/12/07 03:44:19;;;;;;;;;;;;;;;;;;4940321;28;19927;-77
2020/12/07 03:46:46;;;;;;;;;;;;;;;;;;4948107;28;19934;-78
2020/12/07 03:49:12;;;;;;;;;;;;;;;;;;4941834;28;19937;-78
2020/12/07 03:51:39;;;;;;;;;;;;;;;;;;4940887;28;19934;-78
2020/12/07 03:54:05;;;;;;;;;;;;;;;;;;4947190;28;19927;-78
2020/12/07 03:56:32;;;;;;;;;;;;;;;;;;4942180;28;20007;-78
2020/12/07 03:58:59;;;;;;;;;;;;;;;;;;4941631;28;20026;-78
2020/12/07 04:01:26;;;;;;;;;;;;;;;;;;4939691;28;20001;-78
2020/12/07 04:04:03;;;;;;;;;;;;;;;;;;4941659;28;19930;-78
2020/12/07 04:06:36;;;;;;;;;;;;;;;;;;4941064;28;19965;-78
2020/12/07 04:09:03;;;;;;;;;;;;;;;;;;4933608;28;20734;-79
2020/12/07 04:11:29;;;;;;;;;;;;;;;;;;4933427;28;20556;-78
2020/12/07 04:13:56;;;;;;;;;;;;;;;;;;4935134;28;19930;-78
2020/12/07 04:16:22;;;;;;;;;;;;;;;;;;4935068;28;20642;-78
2020/12/07 04:18:49;;;;;;;;;;;;;;;;;;4932807;28;20041;-78
2020/12/07 04:21:16;;;;;;;;;;;;;;;;;;4935746;28;20029;-78
2020/12/07 04:23:42;;;;;;;;;;;;;;;;;;4932860;28;20435;-78
2020/12/07 04:26:09;;;;;;;;;;;;;;;;;;4936629;28;20394;-78
2020/12/07 04:28:35;;;;;;;;;;;;;;;;;;4936646;28;20025;-78
2020/12/07 04:31:02;;;;;;;;;;;;;;;;;;4935433;28;20041;-78
2020/12/07 04:33:28;;;;;;;;;;;;;;;;;;4934769;28;19930;-78
2020/12/07 04:35:55;;;;;;;;;;;;;;;;;;4935408;28;19934;-77
2020/12/07 04:38:22;;;;;;;;;;;;;;;;;;4933410;28;19989;-72
2020/12/07 04:40:49;;;;;;;;;;;;;;;;;;4933080;28;20038;-73
2020/12/07 04:43:15;;;;;;;;;;;;;;;;;;4934712;28;19930;-73
2020/12/07 04:45:42;;;;;;;;;;;;;;;;;;4936016;28;19937;-78
2020/12/07 04:48:08;;;;;;;;;;;;;;;;;;4944514;28;20025;-79
2020/12/07 04:50:35;;;;;;;;;;;;;;;;;;4941666;28;20009;-79
2020/12/07 04:53:01;;;;;;;;;;;;;;;;;;4941052;28;19927;-79
2020/12/07 04:55:28;;;;;;;;;;;;;;;;;;4940409;28;19934;-79
2020/12/07 04:57:55;;;;;;;;;;;;;;;;;;4944683;28;19930;-79
2020/12/07 05:00:21;;;;;;;;;;;;;;;;;;4940206;28;20013;-79
2020/12/07 05:02:49;;;;;;;;;;;;;;;;;;4940545;28;19966;-79
2020/12/07 05:05:15;;;;;;;;;;;;;;;;;;4944279;28;19927;-79
2020/12/07 05:07:42;;;;;;;;;;;;;;;;;;4939716;28;19970;-80
2020/12/07 05:10:14;;;;;;;;;;;;;;;;;;4940906;28;19934;-79
2020/12/07 05:12:55;;;;;;;;;;;;;;;;;;4939496;28;20314;-79
2020/12/07 05:15:23;;;;;;;;;;;;;;;;;;4941327;28;20013;-79
2020/12/07 05:17:49;;;;;;;;;;;;;;;;;;4940152;28;19934;-79
2020/12/07 05:20:16;;;;;;;;;;;;;;;;;;4942663;28;20029;-79
2020/12/07 05:22:42;;;;;;;;;;;;;;;;;;4942201;28;19930;-80
2020/12/07 05:25:09;;;;;;;;;;;;;;;;;;4941796;28;19934;-79
2020/12/07 05:27:39;;;;;;;;;;;;;;;;;;4943043;28;19937;-79
2020/12/07 05:32:45;;;;;;;;;;;;;;;;;;4943149;28;20009;-79
2020/12/07 05:35:11;;;;;;;;;;;;;;;;;;4945473;28;19934;-79
2020/12/07 05:37:38;;;;;;;;;;;;;;;;;;4943233;28;20758;-79
2020/12/07 05:40:05;;;;;;;;;;;;;;;;;;4942274;28;20617;-79
2020/12/07 05:42:31;;;;;;;;;;;;;;;;;;4943676;28;20790;-79
2020/12/07 05:44:58;;;;;;;;;;;;;;;;;;4943382;28;20025;-80
2020/12/07 05:47:24;;;;;;;;;;;;;;;;;;4942175;28;19942;-80
2020/12/07 05:49:51;;;;;;;;;;;;;;;;;;4943435;28;20354;-79
2020/12/07 05:52:17;;;;;;;;;;;;;;;;;;4945720;28;19934;-80
2020/12/07 05:54:44;;;;;;;;;;;;;;;;;;4946590;28;19930;-80
2020/12/07 05:57:11;;;;;;;;;;;;;;;;;;4945741;28;20005;-78
2020/12/07 05:59:38;;;;;;;;;;;;;;;;;;4941108;28;20861;-78
2020/12/07 06:02:04;;;;;;;;;;;;;;;;;;4939938;28;20653;-79
2020/12/07 06:04:31;;;;;;;;;;;;;;;;;;4947827;28;20570;-75
2020/12/07 06:06:58;;;;;;;;;;;;;;;;;;4942413;28;19930;-76
2020/12/07 06:09:24;;;;;;;;;;;;;;;;;;4939647;28;19930;-76
2020/12/07 06:11:51;;;;;;;;;;;;;;;;;;4940182;28;19926;-75
2020/12/07 06:14:17;;;;;;;;;;;;;;;;;;4942081;28;19931;-76
2020/12/07 06:16:44;;;;;;;;;;;;;;;;;;4954527;28;20026;-74
2020/12/07 06:19:11;;;;;;;;;;;;;;;;;;4940494;28;20013;-75
2020/12/07 06:21:37;;;;;;;;;;;;;;;;;;4940234;28;19934;-76
2020/12/07 06:24:04;;;;;;;;;;;;;;;;;;4942649;28;19930;-75
2020/12/07 06:26:30;;;;;;;;;;;;;;;;;;4945466;28;19970;-75
2020/12/07 06:28:57;;;;;;;;;;;;;;;;;;4945843;28;19941;-77
2020/12/07 06:31:25;;;;;;;;;;;;;;;;;;4940001;28;19937;-74
2020/12/07 06:33:52;;;;;;;;;;;;;;;;;;4941109;28;19930;-75
2020/12/07 06:36:18;;;;;;;;;;;;;;;;;;4940419;28;21096;-75
2020/12/07 06:38:45;;;;;;;;;;;;;;;;;;4937568;28;19937;-76
2020/12/07 06:41:11;;;;;;;;;;;;;;;;;;4940853;28;20017;-76
2020/12/07 06:43:38;;;;;;;;;;;;;;;;;;4949289;28;20005;-76
2020/12/07 06:46:04;;;;;;;;;;;;;;;;;;4949009;28;20058;-76
2020/12/07 06:48:33;;;;;;;;;;;;;;;;;;4940518;28;20029;-76
2020/12/07 06:51:00;;;;;;;;;;;;;;;;;;4938653;28;19934;-76
2020/12/07 06:55:56;;;;;;;;;;;;;;;;;;4945601;28;19930;-77
2020/12/07 06:58:23;;;;;;;;;;;;;;;;;;4950754;29;20431;-76
2020/12/07 07:00:49;;;;;;;;;;;;;;;;;;4952061;29;19985;-76
2020/12/07 07:03:16;;;;;;;;;;;;;;;;;;4926483;28;20009;-76
2020/12/07 07:05:42;;;;;;;;;;;;;;;;;;4942823;28;20024;-77
2020/12/07 07:08:09;;;;;;;;;;;;;;;;;;4939035;28;19978;-76
2020/12/07 07:10:35;;;;;;;;;;;;;;;;;;4931569;29;19934;-76
2020/12/07 07:13:02;;;;;;;;;;;;;;;;;;4933148;29;20025;-76
2020/12/07 07:15:28;;;;;;;;;;;;;;;;;;4941455;28;19934;-76
2020/12/07 07:17:55;;;;;;;;;;;;;;;;;;4941397;28;19938;-76
2020/12/07 07:20:22;;;;;;;;;;;;;;;;;;4942046;28;19937;-76
2020/12/07 07:22:49;;;;;;;;;;;;;;;;;;4948866;28;20009;-76
2020/12/07 07:30:28;;;;;;;;;;;;;;;;;;4951545;28;19984;-76
2020/12/07 07:32:54;;;;;;;;;;;;;;;;;;4928806;28;20045;-76
2020/12/07 07:35:21;;;;;;;;;;;;;;;;;;4942933;28;20499;-77
2020/12/07 07:37:48;;;;;;;;;;;;;;;;;;4942428;28;19934;-76
2020/12/07 07:40:14;;;;;;;;;;;;;;;;;;4949040;28;20021;-76
2020/12/07 07:42:41;;;;;;;;;;;;;;;;;;4950991;29;20014;-76
2020/12/07 07:45:07;;;;;;;;;;;;;;;;;;4951903;29;20017;-76
2020/12/07 07:47:39;;;;;;;;;;;;;;;;;;4951533;29;20383;-76
2020/12/07 08:06:14;;;;;;;;;;;;;;;;;;4941233;28;19936;-76
2020/12/07 08:17:40;;;;;;;;;;;;;;;;;;4942606;28;19973;-76
2020/12/07 08:20:07;;;;;;;;;;;;;;;;;;4951095;29;20653;-76
2020/12/07 08:22:33;;;;;;;;;;;;;;;;;;4950336;29;20041;-76
2020/12/07 08:25:02;;;;;;;;;;;;;;;;;;4940934;28;20352;-77
2020/12/07 08:27:29;;;;;;;;;;;;;;;;;;4939966;28;20013;-76
2020/12/07 08:29:55;;;;;;;;;;;;;;;;;;4940411;28;20013;-76
2020/12/07 08:32:23;;;;;;;;;;;;;;;;;;4949028;29;21298;-76
2020/12/07 08:34:50;;;;;;;;;;;;;;;;;;4950859;29;19973;-76
2020/12/07 08:37:17;;;;;;;;;;;;;;;;;;4949233;28;20358;-76
2020/12/07 08:39:44;;;;;;;;;;;;;;;;;;4939697;28;19937;-76
2020/12/07 08:42:10;;;;;;;;;;;;;;;;;;4939249;28;19942;-76
2020/12/07 08:44:37;;;;;;;;;;;;;;;;;;4947604;28;20013;-76
2020/12/07 08:47:04;;;;;;;;;;;;;;;;;;4950865;29;19970;-76
2020/12/07 08:49:30;;;;;;;;;;;;;;;;;;4951932;29;20061;-76
2020/12/07 08:51:57;;;;;;;;;;;;;;;;;;4947654;28;20072;-76
2020/12/07 08:54:24;;;;;;;;;;;;;;;;;;4939679;28;20021;-76
2020/12/07 08:56:50;;;;;;;;;;;;;;;;;;4944467;28;20291;-76
2020/12/07 08:59:17;;;;;;;;;;;;;;;;;;4948502;29;20029;-76
2020/12/07 09:01:43;;;;;;;;;;;;;;;;;;4949012;28;20324;-76
2020/12/07 09:04:11;;;;;;;;;;;;;;;;;;4948353;29;20443;-76
2020/12/07 09:06:39;;;;;;;;;;;;;;;;;;4945078;28;19927;-76
2020/12/07 09:09:06;;;;;;;;;;;;;;;;;;4939228;28;20013;-76
2020/12/07 09:11:33;;;;;;;;;;;;;;;;;;4939941;28;20022;-77
2020/12/07 09:14:00;;;;;;;;;;;;;;;;;;4941842;28;20530;-76
2020/12/07 09:16:27;;;;;;;;;;;;;;;;;;4949488;29;19927;-78
2020/12/07 09:18:53;;;;;;;;;;;;;;;;;;4948145;29;19932;-76
2020/12/07 09:21:20;;;;;;;;;;;;;;;;;;4949585;29;19966;-76
2020/12/07 09:23:47;;;;;;;;;;;;;;;;;;4942783;28;20021;-76
2020/12/07 09:26:13;;;;;;;;;;;;;;;;;;4942763;28;20025;-76
2020/12/07 09:28:40;;;;;;;;;;;;;;;;;;4940601;28;20283;-77
2020/12/07 09:31:06;;;;;;;;;;;;;;;;;;4936540;28;20022;-77
2020/12/07 09:33:33;;;;;;;;;;;;;;;;;;4930134;29;19937;-76
2020/12/07 09:36:00;;;;;;;;;;;;;;;;;;4931709;29;20380;-77
2020/12/07 09:38:26;;;;;;;;;;;;;;;;;;4935055;28;20441;-76
2020/12/07 09:40:53;;;;;;;;;;;;;;;;;;4938904;28;20021;-77
2020/12/07 09:43:20;;;;;;;;;;;;;;;;;;4941540;28;20265;-77
2020/12/07 09:45:46;;;;;;;;;;;;;;;;;;4946937;28;20079;-77
2020/12/07 09:48:13;;;;;;;;;;;;;;;;;;4951066;29;19977;-77
2020/12/07 09:50:39;;;;;;;;;;;;;;;;;;4948833;29;19978;-77
2020/12/07 09:53:09;;;;;;;;;;;;;;;;;;4940782;28;20283;-77
2020/12/07 09:55:36;;;;;;;;;;;;;;;;;;4948586;28;20021;-77
2020/12/07 09:58:02;;;;;;;;;;;;;;;;;;4954581;28;19938;-77
2020/12/07 10:00:29;;;;;;;;;;;;;;;;;;4949753;29;20376;-77
2020/12/07 10:02:56;;;;;;;;;;;;;;;;;;4949636;29;19977;-77
2020/12/07 10:05:22;;;;;;;;;;;;;;;;;;4948769;28;20368;-77
2020/12/07 10:07:50;;;;;;;;;;;;;;;;;;4942028;28;20645;-77
2020/12/07 10:10:17;;;;;;;;;;;;;;;;;;4939060;28;20340;-76
2020/12/07 10:12:43;;;;;;;;;;;;;;;;;;4939454;28;20018;-76
2020/12/07 10:15:10;;;;;;;;;;;;;;;;;;4944042;28;20477;-77
2020/12/07 10:17:36;;;;;;;;;;;;;;;;;;4942383;28;19966;-77
2020/12/07 10:20:03;;;;;;;;;;;;;;;;;;4948779;28;19970;-76
2020/12/07 10:22:29;;;;;;;;;;;;;;;;;;4952927;29;19991;-77
2020/12/07 10:24:56;;;;;;;;;;;;;;;;;;4952595;29;19938;-77
2020/12/07 10:27:22;;;;;;;;;;;;;;;;;;4952304;29;20025;-77
2020/12/07 10:29:49;;;;;;;;;;;;;;;;;;4952656;29;19927;-77
2020/12/07 10:32:18;;;;;;;;;;;;;;;;;;4951154;28;20002;-77
2020/12/07 10:34:45;;;;;;;;;;;;;;;;;;4942151;28;20021;-77
2020/12/07 10:37:14;;;;;;;;;;;;;;;;;;4942478;28;20445;-76
2020/12/07 10:39:41;;;;;;;;;;;;;;;;;;4940811;28;19939;-76
2020/12/07 10:42:08;;;;;;;;;;;;;;;;;;4950661;28;19969;-76
2020/12/07 10:44:34;;;;;;;;;;;;;;;;;;4951595;29;20025;-77
2020/12/07 10:47:01;;;;;;;;;;;;;;;;;;4952775;29;19932;-76
2020/12/07 10:49:27;;;;;;;;;;;;;;;;;;4952411;29;20021;-77
2020/12/07 10:51:54;;;;;;;;;;;;;;;;;;4951584;29;19990;-77
2020/12/07 10:54:20;;;;;;;;;;;;;;;;;;4951332;29;20447;-77
2020/12/07 10:56:47;;;;;;;;;;;;;;;;;;4943075;28;20801;-76
2020/12/07 10:59:13;;;;;;;;;;;;;;;;;;4942883;28;19997;-77
2020/12/07 11:01:40;;;;;;;;;;;;;;;;;;4940644;28;20012;-77
2020/12/07 11:04:07;;;;;;;;;;;;;;;;;;4932255;29;20029;-77
2020/12/07 11:06:36;;;;;;;;;;;;;;;;;;4930971;28;20641;-77
2020/12/07 11:09:09;;;;;;;;;;;;;;;;;;4936893;28;19930;-77
2020/12/07 11:11:35;;;;;;;;;;;;;;;;;;4938838;28;19937;-77
2020/12/07 11:14:02;;;;;;;;;;;;;;;;;;4937589;28;19937;-77
2020/12/07 11:16:29;;;;;;;;;;;;;;;;;;4935036;28;19973;-77
2020/12/07 11:18:55;;;;;;;;;;;;;;;;;;4941254;28;20005;-77
2020/12/07 11:21:22;;;;;;;;;;;;;;;;;;4938446;28;19942;-77
2020/12/07 11:23:49;;;;;;;;;;;;;;;;;;4942642;28;20020;-77
2020/12/07 11:26:15;;;;;;;;;;;;;;;;;;4950046;29;20025;-76
2020/12/07 11:28:42;;;;;;;;;;;;;;;;;;4934454;29;20049;-77
2020/12/07 11:31:09;;;;;;;;;;;;;;;;;;4951566;29;20025;-76
2020/12/07 11:33:35;;;;;;;;;;;;;;;;;;4934621;29;19926;-77
2020/12/07 11:36:11;;;;;;;;;;;;;;;;;;4952325;29;20013;-77
2020/12/07 11:38:48;;;;;;;;;;;;;;;;;;4950127;28;20064;-77
2020/12/07 11:44:13;;;;;;;;;;;;;;;;;;4942129;28;20029;-77
2020/12/07 11:46:47;;;;;;;;;;;;;;;;;;4947893;28;20105;-77
2020/12/07 11:49:13;;;;;;;;;;;;;;;;;;4941895;28;19930;-77
2020/12/07 11:51:40;;;;;;;;;;;;;;;;;;4941506;28;19936;-77
2020/12/07 11:54:06;;;;;;;;;;;;;;;;;;4938078;28;20061;-77
2020/12/07 11:56:33;;;;;;;;;;;;;;;;;;4943174;28;19980;-77
2020/12/07 11:59:00;;;;;;;;;;;;;;;;;;4941261;28;20981;-77
2020/12/07 12:01:26;;;;;;;;;;;;;;;;;;4940887;28;20018;-77
2020/12/07 12:03:53;;;;;;;;;;;;;;;;;;4960631;28;19926;-77
2020/12/07 12:06:19;;;;;;;;;;;;;;;;;;4970487;28;20032;-76
2020/12/07 12:08:46;;;;;;;;;;;;;;;;;;4961748;28;19966;-76
2020/12/07 12:11:13;;;;;;;;;;;;;;;;;;4950465;29;20431;-77
2020/12/07 12:13:39;;;;;;;;;;;;;;;;;;4950714;29;19978;-76
2020/12/07 12:16:06;;;;;;;;;;;;;;;;;;4950271;29;20341;-77
2020/12/07 12:18:33;;;;;;;;;;;;;;;;;;4950769;29;20021;-77
2020/12/07 12:21:00;;;;;;;;;;;;;;;;;;4946948;28;19992;-77
2020/12/07 12:23:26;;;;;;;;;;;;;;;;;;4939329;28;19989;-77
2020/12/07 12:25:53;;;;;;;;;;;;;;;;;;4943102;28;20022;-77
2020/12/07 12:28:19;;;;;;;;;;;;;;;;;;4939113;28;20043;-77
2020/12/07 12:30:46;;;;;;;;;;;;;;;;;;4949028;29;20013;-77
2020/12/07 12:33:12;;;;;;;;;;;;;;;;;;4950474;29;20012;-77
2020/12/07 12:35:39;;;;;;;;;;;;;;;;;;4944911;28;19974;-78
2020/12/07 12:38:05;;;;;;;;;;;;;;;;;;4941765;28;20602;-77
2020/12/07 12:40:32;;;;;;;;;;;;;;;;;;4939500;28;20013;-78
2020/12/07 12:42:58;;;;;;;;;;;;;;;;;;4949409;28;20029;-78
2020/12/07 12:45:25;;;;;;;;;;;;;;;;;;4951388;29;19980;-77
2020/12/07 12:47:52;;;;;;;;;;;;;;;;;;4949098;29;19926;-77
2020/12/07 12:50:19;;;;;;;;;;;;;;;;;;4941831;28;20013;-77
2020/12/07 12:52:45;;;;;;;;;;;;;;;;;;4940738;28;19934;-77
2020/12/07 12:55:12;;;;;;;;;;;;;;;;;;4944942;28;19927;-77
2020/12/07 12:57:38;;;;;;;;;;;;;;;;;;4950382;29;20352;-77
2020/12/07 13:00:05;;;;;;;;;;;;;;;;;;4949512;29;20399;-78
2020/12/07 13:02:32;;;;;;;;;;;;;;;;;;4950685;29;19962;-78
2020/12/07 13:04:58;;;;;;;;;;;;;;;;;;4948698;29;19937;-77
2020/12/07 13:07:25;;;;;;;;;;;;;;;;;;4949026;29;19981;-77
2020/12/07 13:09:52;;;;;;;;;;;;;;;;;;4950279;29;19933;-78
2020/12/07 13:12:19;;;;;;;;;;;;;;;;;;4943566;28;19945;-77
2020/12/07 13:14:45;;;;;;;;;;;;;;;;;;4944602;28;20021;-77
2020/12/07 13:17:36;;;;;;;;;;;;;;;;;;4954253;28;19936;-77
2020/12/07 13:20:03;;;;;;;;;;;;;;;;;;4969100;28;20033;-77
2020/12/07 13:23:07;;;;;;;;;;;;;;;;;;4968730;28;19952;-77
2020/12/07 13:25:32;;;;;;;;;;;;;;;;;;4967051;28;20013;-77
2020/12/07 13:28:08;;;;;;;;;;;;;;;;;;4949199;28;20375;-77
2020/12/07 13:30:35;;;;;;;;;;;;;;;;;;4949181;29;19984;-77
2020/12/07 13:33:01;;;;;;;;;;;;;;;;;;4950413;29;20029;-77
2020/12/07 13:35:28;;;;;;;;;;;;;;;;;;4950370;29;20029;-77
2020/12/07 13:37:55;;;;;;;;;;;;;;;;;;4949333;28;19931;-77
2020/12/07 13:40:21;;;;;;;;;;;;;;;;;;4940571;28;19937;-77
2020/12/07 13:42:48;;;;;;;;;;;;;;;;;;4940718;28;19937;-77
2020/12/07 13:45:14;;;;;;;;;;;;;;;;;;4939079;28;20054;-77
2020/12/07 13:47:41;;;;;;;;;;;;;;;;;;4947231;28;20048;-77
2020/12/07 13:50:07;;;;;;;;;;;;;;;;;;4952831;29;20025;-77
2020/12/07 13:52:34;;;;;;;;;;;;;;;;;;4951488;28;20009;-77
2020/12/07 13:55:01;;;;;;;;;;;;;;;;;;4928357;28;19936;-77
2020/12/07 13:57:27;;;;;;;;;;;;;;;;;;4944707;28;19937;-77
2020/12/07 13:59:54;;;;;;;;;;;;;;;;;;4945231;28;20594;-77
2020/12/07 14:02:20;;;;;;;;;;;;;;;;;;4953220;29;20017;-77
2020/12/07 14:05:04;;;;;;;;;;;;;;;;;;4952788;29;20390;-77
2020/12/07 14:07:31;;;;;;;;;;;;;;;;;;4953514;29;19934;-77
2020/12/07 14:09:58;;;;;;;;;;;;;;;;;;4941905;28;19934;-77
2020/12/07 14:12:24;;;;;;;;;;;;;;;;;;4944455;28;20766;-77
2020/12/07 14:14:51;;;;;;;;;;;;;;;;;;4953383;29;19927;-77
2020/12/07 14:17:21;;;;;;;;;;;;;;;;;;4953236;29;20021;-77
2020/12/07 14:19:54;;;;;;;;;;;;;;;;;;4952869;29;20254;-76
2020/12/07 14:22:34;;;;;;;;;;;;;;;;;;4952457;29;19981;-76
2020/12/07 14:40:53;;;;;;;;;;;;;;;;;;4942948;28;19985;-77
2020/12/07 14:43:20;;;;;;;;;;;;;;;;;;4945270;28;20013;-77
2020/12/07 14:46:11;;;;;;;;;;;;;;;;;;4952093;29;20017;-77
2020/12/07 14:48:36;;;;;;;;;;;;;;;;;;4952392;29;20041;-78
2020/12/07 14:51:38;;;;;;;;;;;;;;;;;;4950505;29;20002;-77
2020/12/07 14:53:56;;;;;;;;;;;;;;;;;;4944417;29;19930;-77
2020/12/07 14:56:30;;;;;;;;;;;;;;;;;;4945907;29;20029;-77
2020/12/07 15:01:37;;;;;;;;;;;;;;;;;;4945107;29;20829;-76
2020/12/07 15:07:06;;;;;;;;;;;;;;;;;;4936046;28;19930;-77
2020/12/07 15:14:41;;;;;;;;;;;;;;;;;;4946378;29;20043;-77
2020/12/07 15:17:07;;;;;;;;;;;;;;;;;;4945583;29;19974;-77
2020/12/07 15:19:34;;;;;;;;;;;;;;;;;;4936964;28;19953;-77
2020/12/07 15:22:04;;;;;;;;;;;;;;;;;;4936218;28;19930;-77
2020/12/07 15:24:31;;;;;;;;;;;;;;;;;;4946331;29;19980;-77
2020/12/07 15:26:58;;;;;;;;;;;;;;;;;;4944301;28;20061;-77
2020/12/07 15:29:24;;;;;;;;;;;;;;;;;;4940860;28;20041;-77
2020/12/07 15:31:51;;;;;;;;;;;;;;;;;;4934756;28;19937;-77
2020/12/07 15:34:17;;;;;;;;;;;;;;;;;;4941117;28;19941;-77
2020/12/07 15:36:44;;;;;;;;;;;;;;;;;;4936826;28;19931;-77
2020/12/07 15:39:10;;;;;;;;;;;;;;;;;;4933862;28;19935;-77
2020/12/07 15:41:37;;;;;;;;;;;;;;;;;;4935741;28;19978;-77
2020/12/07 15:44:04;;;;;;;;;;;;;;;;;;4942242;28;19930;-77
2020/12/07 15:46:36;;;;;;;;;;;;;;;;;;4945695;29;20435;-77
2020/12/07 15:49:02;;;;;;;;;;;;;;;;;;4944185;29;20033;-77
2020/12/07 15:51:29;;;;;;;;;;;;;;;;;;4950659;29;19930;-77
2020/12/07 15:53:56;;;;;;;;;;;;;;;;;;4951258;29;19930;-77
2020/12/07 15:56:23;;;;;;;;;;;;;;;;;;4951398;29;19965;-77
2020/12/07 15:58:49;;;;;;;;;;;;;;;;;;4949348;28;19939;-77
2020/12/07 16:01:16;;;;;;;;;;;;;;;;;;4939867;28;20275;-77
2020/12/07 16:03:43;;;;;;;;;;;;;;;;;;4941714;28;20021;-77
2020/12/07 16:06:09;;;;;;;;;;;;;;;;;;4944904;28;20389;-77
2020/12/07 16:08:36;;;;;;;;;;;;;;;;;;4951056;29;20021;-77
2020/12/07 16:11:02;;;;;;;;;;;;;;;;;;4946299;28;19941;-76
2020/12/07 16:13:30;;;;;;;;;;;;;;;;;;4941824;28;19926;-77
2020/12/07 16:15:56;;;;;;;;;;;;;;;;;;4941116;28;19933;-78
2020/12/07 16:18:23;;;;;;;;;;;;;;;;;;4941489;28;19937;-78
2020/12/07 16:20:49;;;;;;;;;;;;;;;;;;4949893;29;20679;-79
2020/12/07 16:23:16;;;;;;;;;;;;;;;;;;4950835;29;19937;-79
2020/12/07 16:25:43;;;;;;;;;;;;;;;;;;4934068;29;20024;-77
2020/12/07 16:28:09;;;;;;;;;;;;;;;;;;4950490;29;20021;-77
2020/12/07 16:30:36;;;;;;;;;;;;;;;;;;4942836;28;20384;-77
2020/12/07 16:33:02;;;;;;;;;;;;;;;;;;4939068;28;19976;-77
2020/12/07 16:35:29;;;;;;;;;;;;;;;;;;4941531;28;19978;-77
2020/12/07 16:37:56;;;;;;;;;;;;;;;;;;4950297;29;19981;-77
2020/12/07 16:40:22;;;;;;;;;;;;;;;;;;4949538;29;20018;-77
2020/12/07 16:42:49;;;;;;;;;;;;;;;;;;4948692;29;20013;-77
2020/12/07 16:45:15;;;;;;;;;;;;;;;;;;4950534;29;20290;-77
2020/12/07 16:47:42;;;;;;;;;;;;;;;;;;4950563;29;20017;-77
2020/12/07 16:50:10;;;;;;;;;;;;;;;;;;4944817;28;20013;-77
2020/12/07 16:52:36;;;;;;;;;;;;;;;;;;4937018;28;20013;-78
2020/12/07 16:55:03;;;;;;;;;;;;;;;;;;4933905;28;19930;-77
2020/12/07 16:57:29;;;;;;;;;;;;;;;;;;4936922;28;19930;-77
2020/12/07 16:59:56;;;;;;;;;;;;;;;;;;4944701;29;19940;-77
2020/12/07 17:02:22;;;;;;;;;;;;;;;;;;4943826;28;20404;-77
2020/12/07 17:04:50;;;;;;;;;;;;;;;;;;4944708;29;19934;-78
2020/12/07 17:07:16;;;;;;;;;;;;;;;;;;4944035;28;19930;-77
2020/12/07 17:09:43;;;;;;;;;;;;;;;;;;4937172;28;19937;-78
2020/12/07 17:12:19;;;;;;;;;;;;;;;;;;4937396;28;19934;-78
2020/12/07 17:14:46;;;;;;;;;;;;;;;;;;4940184;28;20705;-78
2020/12/07 17:17:12;;;;;;;;;;;;;;;;;;4945910;29;19930;-77
2020/12/07 17:19:39;;;;;;;;;;;;;;;;;;4944025;29;20045;-77
2020/12/07 17:22:06;;;;;;;;;;;;;;;;;;4933654;28;20735;-77
2020/12/07 17:24:32;;;;;;;;;;;;;;;;;;4939285;28;19931;-78
2020/12/07 17:26:59;;;;;;;;;;;;;;;;;;4939142;28;20025;-78
2020/12/07 17:29:26;;;;;;;;;;;;;;;;;;4932084;28;20463;-80
2020/12/07 17:31:52;;;;;;;;;;;;;;;;;;4944548;28;20013;-81
2020/12/07 17:34:19;;;;;;;;;;;;;;;;;;5066982;22;20020;-78
2020/12/07 17:36:46;;;;;;;;;;;;;;;;;;5005294;28;19929;-79
2020/12/07 17:39:13;;;;;;;;;;;;;;;;;;5005938;28;19925;-78
2020/12/07 17:41:40;;;;;;;;;;;;;;;;;;5020142;28;19933;-78
2020/12/07 17:44:07;;;;;;;;;;;;;;;;;;5019061;28;19972;-80
2020/12/07 17:46:34;;;;;;;;;;;;;;;;;;5003851;28;19929;-81
2020/12/07 17:49:04;;;;;;;;;;;;;;;;;;5024358;28;19961;-80
2020/12/07 17:51:32;;;;;;;;;;;;;;;;;;5005608;28;19972;-78